createdAt,value
2022-10-30T00:01:36.942Z,16.80
2022-10-30T00:04:03.648Z,16.80
2022-10-30T00:06:30.247Z,16.80
2022-10-30T00:08:56.903Z,16.80
2022-10-30T00:11:23.567Z,16.80
2022-10-30T00:13:50.155Z,16.80
2022-10-30T00:16:16.770Z,16.80
2022-10-30T00:18:43.519Z,16.80
2022-10-30T00:21:13.785Z,16.70
2022-10-30T00:23:46.991Z,16.70
2022-10-30T00:26:13.634Z,16.70
2022-10-30T00:28:40.196Z,16.60
2022-10-30T00:31:06.827Z,16.60
2022-10-30T00:33:33.584Z,16.60
2022-10-30T00:36:00.748Z,16.60
2022-10-30T00:38:27.372Z,16.50
2022-10-30T00:40:53.983Z,16.60
2022-10-30T00:43:40.591Z,16.50
2022-10-30T00:46:27.821Z,16.50
2022-10-30T00:49:17.930Z,16.50
2022-10-30T00:51:53.125Z,16.40
2022-10-30T00:54:21.868Z,16.40
2022-10-30T00:56:50.085Z,16.40
2022-10-30T00:59:23.126Z,16.40
2022-10-30T01:01:50.772Z,16.40
2022-10-30T01:04:17.847Z,16.40
2022-10-30T01:06:48.505Z,16.40
2022-10-30T01:09:16.221Z,16.40
2022-10-30T01:11:42.869Z,16.40
2022-10-30T01:14:10.969Z,16.40
2022-10-30T01:16:44.448Z,16.40
2022-10-30T01:19:33.347Z,16.30
2022-10-30T01:22:31.137Z,16.30
2022-10-30T01:25:15.496Z,16.40
2022-10-30T01:27:53.898Z,16.40
2022-10-30T01:30:47.663Z,16.30
2022-10-30T01:33:48.819Z,16.30
2022-10-30T01:36:41.675Z,16.30
2022-10-30T01:39:17.778Z,16.30
2022-10-30T01:41:45.412Z,16.30
2022-10-30T01:44:20.156Z,16.20
2022-10-30T01:47:11.163Z,16.20
2022-10-30T01:49:54.007Z,16.20
2022-10-30T01:52:45.883Z,16.20
2022-10-30T01:55:18.076Z,16.20
2022-10-30T01:58:15.291Z,16.10
2022-10-30T02:00:45.097Z,16.10
2022-10-30T02:03:13.007Z,16.00
2022-10-30T02:05:43.843Z,15.90
2022-10-30T02:08:10.584Z,15.90
2022-10-30T02:10:38.230Z,15.90
2022-10-30T02:13:05.214Z,15.90
2022-10-30T02:15:32.695Z,15.90
2022-10-30T02:17:59.832Z,15.80
2022-10-30T02:20:26.991Z,15.80
2022-10-30T02:22:58.034Z,15.80
2022-10-30T02:25:26.213Z,15.80
2022-10-30T02:27:52.900Z,15.80
2022-10-30T02:30:19.517Z,15.70
2022-10-30T02:32:46.065Z,15.70
2022-10-30T02:35:12.703Z,15.60
2022-10-30T02:37:39.860Z,15.60
2022-10-30T02:40:10.002Z,15.60
2022-10-30T02:42:36.696Z,15.50
2022-10-30T02:45:03.652Z,15.50
2022-10-30T02:47:30.268Z,15.50
2022-10-30T02:49:56.968Z,15.50
2022-10-30T02:52:23.534Z,15.50
2022-10-30T02:54:50.307Z,15.40
2022-10-30T02:57:16.986Z,15.40
2022-10-30T02:59:43.606Z,15.40
2022-10-30T03:02:10.314Z,15.30
2022-10-30T03:04:37.179Z,15.30
2022-10-30T03:07:03.738Z,15.30
2022-10-30T03:09:30.309Z,15.30
2022-10-30T03:11:56.887Z,15.30
2022-10-30T03:14:23.618Z,15.20
2022-10-30T03:16:52.414Z,15.20
2022-10-30T03:19:19.711Z,15.20
2022-10-30T03:21:46.889Z,15.20
2022-10-30T03:24:13.584Z,15.20
2022-10-30T03:26:40.140Z,15.20
2022-10-30T03:29:07.018Z,15.20
2022-10-30T03:31:33.627Z,15.20
2022-10-30T03:34:00.176Z,15.20
2022-10-30T03:36:26.835Z,15.20
2022-10-30T03:38:53.418Z,15.20
2022-10-30T03:41:19.999Z,15.10
2022-10-30T03:43:46.576Z,15.10
2022-10-30T03:46:13.163Z,15.10
2022-10-30T03:48:39.781Z,15.00
2022-10-30T03:51:06.510Z,15.00
2022-10-30T03:53:33.504Z,15.00
2022-10-30T03:56:02.732Z,14.90
2022-10-30T03:58:30.070Z,14.90
2022-10-30T04:01:05.065Z,14.90
2022-10-30T04:03:31.738Z,14.90
2022-10-30T04:05:58.456Z,14.80
2022-10-30T04:08:25.038Z,14.80
2022-10-30T04:10:51.626Z,14.70
2022-10-30T04:13:20.286Z,14.70
2022-10-30T04:15:54.124Z,14.70
2022-10-30T04:18:24.695Z,14.70
2022-10-30T04:20:51.379Z,14.70
2022-10-30T04:23:19.762Z,14.60
2022-10-30T04:25:46.654Z,14.60
2022-10-30T04:28:13.323Z,14.60
2022-10-30T04:30:40.486Z,14.60
2022-10-30T04:33:11.389Z,14.70
2022-10-30T04:35:38.740Z,14.70
2022-10-30T04:38:07.469Z,14.60
2022-10-30T04:40:36.717Z,14.60
2022-10-30T04:43:03.760Z,14.60
2022-10-30T04:45:31.142Z,14.60
2022-10-30T04:48:07.076Z,14.60
2022-10-30T04:50:34.962Z,14.60
2022-10-30T04:53:03.329Z,14.50
2022-10-30T04:55:30.739Z,14.50
2022-10-30T04:58:02.947Z,14.50
2022-10-30T05:00:29.824Z,14.50
2022-10-30T05:02:59.849Z,14.50
2022-10-30T05:05:26.885Z,14.50
2022-10-30T05:07:53.590Z,14.50
2022-10-30T05:10:20.181Z,14.50
2022-10-30T05:12:46.987Z,14.50
2022-10-30T05:15:14.131Z,14.40
2022-10-30T05:17:41.484Z,14.40
2022-10-30T05:20:08.632Z,14.40
2022-10-30T05:22:35.220Z,14.30
2022-10-30T05:25:01.813Z,14.30
2022-10-30T05:27:28.382Z,14.30
2022-10-30T05:29:54.948Z,14.30
2022-10-30T05:32:21.553Z,14.20
2022-10-30T05:34:48.159Z,14.20
2022-10-30T05:37:14.736Z,14.20
2022-10-30T05:39:41.283Z,14.20
2022-10-30T05:42:12.692Z,14.10
2022-10-30T05:44:59.863Z,14.10
2022-10-30T05:47:27.075Z,14.10
2022-10-30T05:49:53.633Z,14.00
2022-10-30T05:52:20.281Z,14.00
2022-10-30T05:54:46.842Z,14.00
2022-10-30T05:57:13.418Z,14.00
2022-10-30T05:59:39.976Z,14.00
2022-10-30T06:02:06.641Z,14.10
2022-10-30T06:04:33.247Z,14.10
2022-10-30T06:07:00.029Z,14.10
2022-10-30T06:09:26.573Z,14.20
2022-10-30T06:11:53.657Z,14.20
2022-10-30T06:14:20.248Z,14.20
2022-10-30T06:16:47.098Z,14.20
2022-10-30T06:19:17.483Z,14.20
2022-10-30T06:21:46.086Z,14.20
2022-10-30T06:24:13.110Z,14.20
2022-10-30T06:26:39.848Z,14.20
2022-10-30T06:29:06.519Z,14.20
2022-10-30T06:31:33.117Z,14.10
2022-10-30T06:33:59.715Z,14.10
2022-10-30T06:36:26.331Z,14.00
2022-10-30T06:38:52.897Z,14.00
2022-10-30T06:41:19.506Z,14.00
2022-10-30T06:43:46.194Z,14.00
2022-10-30T06:46:12.757Z,14.00
2022-10-30T06:48:39.510Z,14.00
2022-10-30T06:51:06.216Z,14.00
2022-10-30T06:53:32.803Z,14.00
2022-10-30T06:56:01.760Z,14.10
2022-10-30T06:58:29.253Z,14.00
2022-10-30T07:00:59.107Z,14.10
2022-10-30T07:03:25.663Z,14.10
2022-10-30T07:05:52.319Z,14.10
2022-10-30T07:08:18.873Z,14.00
2022-10-30T07:10:45.421Z,14.00
2022-10-30T07:13:11.980Z,14.00
2022-10-30T07:15:38.780Z,14.00
2022-10-30T07:18:05.465Z,14.00
2022-10-30T07:20:34.599Z,14.10
2022-10-30T07:23:01.647Z,14.10
2022-10-30T07:25:28.826Z,14.20
2022-10-30T07:27:56.966Z,14.20
2022-10-30T07:33:03.560Z,14.30
2022-10-30T07:35:31.234Z,14.30
2022-10-30T07:38:06.035Z,14.40
2022-10-30T07:40:34.083Z,14.40
2022-10-30T07:43:02.425Z,14.40
2022-10-30T07:45:29.728Z,14.50
2022-10-30T07:47:57.224Z,14.50
2022-10-30T07:50:24.209Z,14.50
2022-10-30T07:52:50.809Z,14.60
2022-10-30T07:55:17.515Z,14.70
2022-10-30T07:57:44.171Z,14.80
2022-10-30T08:00:13.327Z,15.00
2022-10-30T08:02:40.440Z,15.10
2022-10-30T08:05:08.089Z,15.30
2022-10-30T08:07:36.826Z,15.30
2022-10-30T08:10:04.763Z,15.50
2022-10-30T08:12:33.034Z,15.60
2022-10-30T08:14:59.759Z,15.80
2022-10-30T08:17:26.391Z,15.80
2022-10-30T08:19:53.023Z,15.90
2022-10-30T08:22:19.655Z,16.00
2022-10-30T08:24:46.282Z,16.10
2022-10-30T08:27:12.863Z,16.30
2022-10-30T08:29:39.525Z,16.50
2022-10-30T08:32:06.596Z,16.60
2022-10-30T08:34:35.184Z,16.80
2022-10-30T08:37:01.757Z,17.00
2022-10-30T08:39:28.361Z,17.20
2022-10-30T08:41:57.486Z,17.40
2022-10-30T08:44:24.098Z,17.50
2022-10-30T08:46:50.696Z,17.60
2022-10-30T08:49:17.273Z,17.50
2022-10-30T08:51:44.251Z,17.50
2022-10-30T08:54:10.830Z,17.50
2022-10-30T08:56:37.463Z,17.50
2022-10-30T08:59:04.007Z,17.60
2022-10-30T09:01:30.678Z,17.80
2022-10-30T09:03:57.356Z,18.00
2022-10-30T09:06:23.980Z,18.20
2022-10-30T09:08:50.609Z,18.50
2022-10-30T09:11:17.459Z,18.80
2022-10-30T09:13:44.060Z,18.90
2022-10-30T09:16:10.637Z,19.00
2022-10-30T09:18:37.229Z,19.10
2022-10-30T09:21:05.164Z,19.10
2022-10-30T09:23:32.175Z,19.20
2022-10-30T09:25:58.831Z,19.40
2022-10-30T09:28:25.480Z,19.50
2022-10-30T09:30:56.179Z,19.60
2022-10-30T09:33:23.142Z,19.60
2022-10-30T09:35:49.700Z,19.80
2022-10-30T09:38:16.255Z,19.90
2022-10-30T09:41:14.078Z,20.10
2022-10-30T09:44:07.473Z,20.10
2022-10-30T09:46:51.795Z,20.20
2022-10-30T09:49:46.076Z,20.30
2022-10-30T09:52:29.972Z,20.50
2022-10-30T09:55:12.311Z,20.60
2022-10-30T09:58:34.405Z,20.50
2022-10-30T10:01:19.518Z,20.60
2022-10-30T10:03:56.331Z,20.50
2022-10-30T10:06:24.648Z,20.40
2022-10-30T10:09:16.119Z,20.50
2022-10-30T10:11:48.463Z,20.60
2022-10-30T10:14:24.057Z,20.70
2022-10-30T10:16:53.826Z,20.80
2022-10-30T10:19:40.706Z,20.80
2022-10-30T10:22:22.798Z,20.90
2022-10-30T10:24:49.879Z,20.90
2022-10-30T10:27:37.247Z,21.10
2022-10-30T10:30:13.808Z,21.20
2022-10-30T10:33:17.655Z,21.20
2022-10-30T10:36:14.741Z,21.20
2022-10-30T10:39:08.574Z,21.20
2022-10-30T10:41:41.096Z,21.20
2022-10-30T10:44:16.813Z,21.40
2022-10-30T10:46:43.358Z,21.40
2022-10-30T10:49:39.030Z,21.40
2022-10-30T10:52:25.666Z,21.50
2022-10-30T10:54:55.727Z,21.60
2022-10-30T10:57:37.592Z,21.50
2022-10-30T11:00:07.955Z,21.60
2022-10-30T11:02:37.880Z,21.60
2022-10-30T11:05:31.986Z,21.70
2022-10-30T11:08:13.877Z,21.70
2022-10-30T11:10:40.634Z,21.60
2022-10-30T11:13:09.508Z,21.60
2022-10-30T11:15:59.776Z,21.60
2022-10-30T11:18:26.344Z,21.60
2022-10-30T11:21:08.870Z,21.80
2022-10-30T11:23:44.101Z,21.80
2022-10-30T11:26:22.300Z,21.80
2022-10-30T11:29:18.394Z,21.80
2022-10-30T11:31:45.853Z,21.90
2022-10-30T11:34:18.415Z,22.00
2022-10-30T11:36:49.004Z,22.00
2022-10-30T11:39:19.624Z,21.80
2022-10-30T11:41:58.261Z,21.80
2022-10-30T11:44:47.153Z,21.80
2022-10-30T11:47:15.791Z,21.70
2022-10-30T11:49:51.727Z,21.70
2022-10-30T11:52:21.479Z,21.60
2022-10-30T11:54:56.613Z,21.70
2022-10-30T11:57:41.605Z,21.60
2022-10-30T12:00:25.939Z,21.50
2022-10-30T12:02:58.431Z,21.50
2022-10-30T12:05:33.384Z,21.40
2022-10-30T12:08:21.095Z,21.40
2022-10-30T12:11:01.958Z,21.30
2022-10-30T12:13:39.668Z,21.30
2022-10-30T12:16:16.621Z,21.30
2022-10-30T12:19:00.451Z,21.30
2022-10-30T12:21:30.022Z,21.30
2022-10-30T12:24:02.296Z,21.40
2022-10-30T12:26:29.959Z,21.30
2022-10-30T12:29:02.423Z,21.30
2022-10-30T12:31:55.573Z,21.30
2022-10-30T12:34:34.715Z,21.30
2022-10-30T12:37:12.497Z,21.30
2022-10-30T12:39:55.494Z,21.20
2022-10-30T12:42:24.813Z,21.20
2022-10-30T12:45:19.746Z,21.20
2022-10-30T12:48:02.058Z,21.20
2022-10-30T12:51:08.203Z,21.20
2022-10-30T12:53:42.638Z,21.20
2022-10-30T12:56:14.814Z,21.20
2022-10-30T12:58:47.123Z,21.20
2022-10-30T13:01:38.080Z,21.20
2022-10-30T13:04:17.765Z,21.30
2022-10-30T13:06:54.205Z,21.30
2022-10-30T13:09:37.377Z,21.30
2022-10-30T13:12:16.674Z,21.30
2022-10-30T13:14:52.187Z,21.20
2022-10-30T13:17:18.788Z,21.20
2022-10-30T13:19:48.225Z,21.10
2022-10-30T13:22:41.023Z,21.10
2022-10-30T13:25:40.218Z,21.20
2022-10-30T13:28:21.814Z,21.10
2022-10-30T13:30:58.042Z,21.10
2022-10-30T13:33:32.887Z,21.10
2022-10-30T13:36:02.370Z,21.00
2022-10-30T13:38:43.806Z,21.10
2022-10-30T13:41:36.267Z,21.10
2022-10-30T13:44:26.728Z,21.10
2022-10-30T13:47:06.340Z,21.10
2022-10-30T13:49:41.640Z,21.20
2022-10-30T13:52:15.157Z,21.00
2022-10-30T13:54:53.591Z,20.90
2022-10-30T13:57:40.370Z,20.80
2022-10-30T14:00:21.137Z,20.80
2022-10-30T14:02:56.853Z,20.70
2022-10-30T14:05:30.078Z,20.70
2022-10-30T14:08:13.722Z,20.70
2022-10-30T14:10:49.598Z,20.60
2022-10-30T14:13:21.000Z,20.60
2022-10-30T14:15:47.669Z,20.60
2022-10-30T14:18:17.147Z,20.70
2022-10-30T14:20:51.310Z,20.70
2022-10-30T14:23:24.547Z,20.70
2022-10-30T14:26:05.975Z,20.70
2022-10-30T14:28:35.708Z,20.80
2022-10-30T14:31:13.033Z,20.80
2022-10-30T14:33:50.186Z,20.80
2022-10-30T14:36:44.970Z,20.80
2022-10-30T14:39:14.553Z,20.70
2022-10-30T14:41:53.712Z,20.80
2022-10-30T14:44:37.201Z,20.70
2022-10-30T14:47:21.369Z,20.80
2022-10-30T14:49:57.446Z,20.80
2022-10-30T14:52:30.293Z,20.80
2022-10-30T14:55:23.392Z,20.70
2022-10-30T14:58:14.077Z,20.70
2022-10-30T15:00:42.675Z,20.60
2022-10-30T15:03:13.402Z,20.50
2022-10-30T15:05:55.411Z,20.40
2022-10-30T15:08:21.969Z,20.40
2022-10-30T15:11:12.809Z,20.40
2022-10-30T15:13:52.321Z,20.40
2022-10-30T15:16:20.876Z,20.30
2022-10-30T15:18:55.766Z,20.30
2022-10-30T15:21:25.565Z,20.20
2022-10-30T15:23:55.208Z,20.20
2022-10-30T15:26:25.768Z,20.20
2022-10-30T15:28:53.702Z,20.20
2022-10-30T15:31:25.679Z,20.10
2022-10-30T15:33:54.295Z,20.00
2022-10-30T15:36:24.133Z,20.00
2022-10-30T15:39:05.589Z,19.90
2022-10-30T15:41:35.872Z,19.80
2022-10-30T15:44:02.594Z,19.70
2022-10-30T15:46:29.387Z,19.80
2022-10-30T15:48:56.638Z,19.80
2022-10-30T15:51:24.410Z,19.70
2022-10-30T15:53:55.525Z,19.70
2022-10-30T15:56:41.068Z,19.60
2022-10-30T15:59:25.186Z,19.60
2022-10-30T16:01:54.830Z,19.60
2022-10-30T16:04:32.770Z,19.60
2022-10-30T16:07:01.773Z,19.60
2022-10-30T16:09:28.874Z,19.60
2022-10-30T16:11:58.262Z,19.50
2022-10-30T16:14:27.823Z,19.40
2022-10-30T16:16:54.749Z,19.30
2022-10-30T16:19:29.339Z,19.20
2022-10-30T16:21:58.581Z,19.20
2022-10-30T16:24:35.481Z,19.20
2022-10-30T16:27:18.739Z,19.10
2022-10-30T16:29:56.599Z,19.00
2022-10-30T16:32:27.368Z,19.00
2022-10-30T16:35:03.060Z,18.90
2022-10-30T16:37:34.779Z,18.90
2022-10-30T16:40:10.557Z,18.90
2022-10-30T16:42:37.229Z,18.80
2022-10-30T16:45:23.775Z,18.80
2022-10-30T16:48:15.178Z,18.80
2022-10-30T16:50:41.897Z,18.70
2022-10-30T16:53:22.229Z,18.70
2022-10-30T16:55:48.932Z,18.70
2022-10-30T16:58:16.997Z,18.70
2022-10-30T17:00:51.229Z,18.60
2022-10-30T17:03:24.952Z,18.60
2022-10-30T17:06:03.117Z,18.60
2022-10-30T17:08:33.458Z,18.60
2022-10-30T17:11:02.756Z,18.60
2022-10-30T17:13:38.667Z,18.50
2022-10-30T17:16:27.594Z,18.60
2022-10-30T17:19:14.135Z,18.60
2022-10-30T17:21:42.010Z,18.60
2022-10-30T17:24:25.352Z,18.60
2022-10-30T17:26:57.928Z,18.60
2022-10-30T17:29:43.998Z,18.60
2022-10-30T17:32:20.825Z,18.60
2022-10-30T17:34:48.660Z,18.60
2022-10-30T17:37:15.224Z,18.60
2022-10-30T17:39:41.857Z,18.60
2022-10-30T17:42:10.061Z,18.50
2022-10-30T17:44:36.834Z,18.50
2022-10-30T17:47:20.370Z,18.40
2022-10-30T17:49:47.196Z,18.40
2022-10-30T17:52:15.622Z,18.40
2022-10-30T17:54:43.282Z,18.30
2022-10-30T17:57:11.637Z,18.30
2022-10-30T17:59:39.206Z,18.30
2022-10-30T18:02:17.712Z,18.20
2022-10-30T18:04:45.171Z,18.20
2022-10-30T18:07:13.474Z,18.20
2022-10-30T18:09:40.348Z,18.20
2022-10-30T18:12:11.488Z,18.10
2022-10-30T18:14:38.027Z,18.10
2022-10-30T18:17:04.591Z,18.00
2022-10-30T18:19:31.158Z,18.00
2022-10-30T18:21:57.833Z,18.00
2022-10-30T18:24:24.389Z,18.00
2022-10-30T18:26:51.024Z,18.00
2022-10-30T18:29:17.635Z,18.00
2022-10-30T18:31:44.196Z,18.00
2022-10-30T18:34:17.158Z,18.00
2022-10-30T18:36:44.346Z,17.90
2022-10-30T18:39:12.717Z,17.80
2022-10-30T18:41:44.760Z,17.80
2022-10-30T18:44:15.960Z,17.80
2022-10-30T18:46:43.149Z,17.80
2022-10-30T18:49:10.074Z,17.80
2022-10-30T18:51:36.734Z,17.80
2022-10-30T18:54:03.570Z,17.90
2022-10-30T18:56:32.529Z,17.90
2022-10-30T18:59:01.875Z,17.70
2022-10-30T19:01:32.049Z,17.60
2022-10-30T19:04:00.947Z,17.60
2022-10-30T19:06:28.285Z,17.50
2022-10-30T19:08:54.894Z,17.40
2022-10-30T19:11:24.824Z,17.40
2022-10-30T19:13:53.725Z,17.40
2022-10-30T19:16:21.347Z,17.40
2022-10-30T19:18:48.537Z,17.50
2022-10-30T19:21:20.622Z,17.50
2022-10-30T19:23:47.993Z,17.50
2022-10-30T19:26:15.856Z,17.40
2022-10-30T19:28:42.834Z,17.40
2022-10-30T19:31:17.386Z,17.40
2022-10-30T19:33:44.449Z,17.40
2022-10-30T19:36:28.038Z,17.40
2022-10-30T19:38:54.935Z,17.30
2022-10-30T19:41:21.813Z,17.20
2022-10-30T19:43:48.454Z,17.20
2022-10-30T19:46:15.370Z,17.20
2022-10-30T19:48:58.575Z,17.20
2022-10-30T19:51:26.998Z,17.20
2022-10-30T19:53:53.722Z,17.10
2022-10-30T19:56:21.267Z,17.10
2022-10-30T19:58:47.875Z,17.10
2022-10-30T20:01:14.649Z,17.10
2022-10-30T20:03:41.370Z,17.00
2022-10-30T20:06:11.804Z,16.90
2022-10-30T20:08:38.382Z,16.90
2022-10-30T20:11:05.066Z,16.70
2022-10-30T20:13:33.301Z,16.70
2022-10-30T20:16:02.370Z,16.70
2022-10-30T20:18:31.672Z,16.70
2022-10-30T20:21:00.451Z,16.80
2022-10-30T20:23:27.896Z,16.80
2022-10-30T20:25:59.887Z,16.70
2022-10-30T20:28:41.502Z,16.70
2022-10-30T20:31:11.138Z,16.70
2022-10-30T20:33:37.883Z,16.70
2022-10-30T20:36:05.266Z,16.60
2022-10-30T20:38:33.475Z,16.60
2022-10-30T20:41:02.593Z,16.60
2022-10-30T20:43:33.283Z,16.50
2022-10-30T20:46:01.440Z,16.50
2022-10-30T20:48:28.695Z,16.40
2022-10-30T20:51:00.098Z,16.40
2022-10-30T20:53:27.556Z,16.40
2022-10-30T20:55:54.131Z,16.40
2022-10-30T20:58:21.111Z,16.30
2022-10-30T21:00:48.537Z,16.30
2022-10-30T21:03:15.662Z,16.30
2022-10-30T21:05:45.642Z,16.30
2022-10-30T21:08:13.743Z,16.30
2022-10-30T21:10:40.655Z,16.20
2022-10-30T21:13:09.983Z,16.20
2022-10-30T21:15:44.370Z,16.10
2022-10-30T21:18:12.916Z,16.10
2022-10-30T21:20:40.807Z,16.10
2022-10-30T21:23:07.441Z,16.10
2022-10-30T21:25:34.232Z,16.10
2022-10-30T21:28:01.552Z,16.00
2022-10-30T21:30:28.732Z,16.00
2022-10-30T21:32:55.438Z,15.90
2022-10-30T21:35:22.058Z,15.90
2022-10-30T21:37:48.707Z,15.90
2022-10-30T21:40:15.351Z,15.80
2022-10-30T21:42:41.944Z,15.80
2022-10-30T21:45:09.168Z,15.80
2022-10-30T21:47:35.724Z,15.70
2022-10-30T21:50:06.189Z,15.60
2022-10-30T21:52:34.582Z,15.60
2022-10-30T21:55:01.226Z,15.50
2022-10-30T21:57:28.907Z,15.50
2022-10-30T21:59:56.806Z,15.50
2022-10-30T22:02:25.490Z,15.40
2022-10-30T22:04:52.124Z,15.40
2022-10-30T22:07:19.256Z,15.40
2022-10-30T22:09:46.443Z,15.30
2022-10-30T22:12:13.031Z,15.20
2022-10-30T22:14:39.650Z,15.20
2022-10-30T22:17:06.219Z,15.10
2022-10-30T22:19:32.788Z,15.10
2022-10-30T22:21:59.352Z,15.00
2022-10-30T22:24:25.912Z,15.00
2022-10-30T22:26:52.465Z,14.90
2022-10-30T22:29:19.030Z,14.90
2022-10-30T22:31:45.584Z,14.80
2022-10-30T22:34:12.139Z,14.80
2022-10-30T22:36:38.758Z,14.80
2022-10-30T22:39:08.163Z,14.70
2022-10-30T22:41:37.920Z,14.70
2022-10-30T22:44:07.804Z,14.70
2022-10-30T22:46:35.191Z,14.60
2022-10-30T22:49:01.762Z,14.60
2022-10-30T22:51:32.436Z,14.60
2022-10-30T22:54:01.169Z,14.50
2022-10-30T22:56:33.327Z,14.50
2022-10-30T22:59:05.912Z,14.50
2022-10-30T23:01:34.706Z,14.50
2022-10-30T23:04:02.669Z,14.40
2022-10-30T23:06:31.191Z,14.40
2022-10-30T23:09:00.478Z,14.40
2022-10-30T23:11:28.028Z,14.40
2022-10-30T23:13:55.055Z,14.30
2022-10-30T23:16:24.286Z,14.30
2022-10-30T23:18:51.765Z,14.20
2022-10-30T23:21:21.534Z,14.20
2022-10-30T23:23:48.505Z,14.20
2022-10-30T23:26:27.133Z,14.10
2022-10-30T23:28:55.206Z,14.10
2022-10-30T23:31:24.741Z,14.10
2022-10-30T23:33:53.414Z,14.10
2022-10-30T23:36:20.137Z,14.00
2022-10-30T23:38:59.056Z,14.00
2022-10-30T23:41:28.871Z,14.00
2022-10-30T23:44:00.284Z,14.00
2022-10-30T23:46:28.195Z,13.90
2022-10-30T23:48:54.990Z,13.90
2022-10-30T23:51:22.353Z,13.90
2022-10-30T23:53:49.562Z,14.00
2022-10-30T23:56:16.887Z,14.00
2022-10-30T23:58:45.003Z,14.00
